createdAt,value
2024-02-12T00:01:39.735Z,11.07
2024-02-12T00:04:32.178Z,11.05
2024-02-12T00:07:16.479Z,11.06
2024-02-12T00:09:45.725Z,11.03
2024-02-12T00:12:31.550Z,10.99
2024-02-12T00:15:00.391Z,10.95
2024-02-12T00:18:04.901Z,10.92
2024-02-12T00:21:13.633Z,10.88
2024-02-12T00:24:01.954Z,10.83
2024-02-12T00:27:29.897Z,10.77
2024-02-12T00:30:19.068Z,10.72
2024-02-12T00:33:26.958Z,10.71
2024-02-12T00:36:35.464Z,10.75
2024-02-12T00:39:44.202Z,10.77
2024-02-12T00:42:35.086Z,10.76
2024-02-12T00:46:02.887Z,10.72
2024-02-12T00:48:52.130Z,10.70
2024-02-12T00:52:00.206Z,10.67
2024-02-12T00:54:49.777Z,10.64
2024-02-12T00:57:43.629Z,10.61
2024-02-12T01:00:34.192Z,10.58
2024-02-12T01:03:26.010Z,10.55
2024-02-12T01:06:54.466Z,10.51
2024-02-12T01:10:02.579Z,10.51
2024-02-12T01:12:50.748Z,10.49
2024-02-12T01:15:29.121Z,10.47
2024-02-12T01:18:37.326Z,10.47
2024-02-12T01:22:05.071Z,10.43
2024-02-12T01:24:58.363Z,10.41
2024-02-12T01:27:48.230Z,10.37
2024-02-12T01:30:52.454Z,10.29
2024-02-12T01:34:20.546Z,10.23
2024-02-12T01:37:49.643Z,10.16
2024-02-12T01:41:17.450Z,10.11
2024-02-12T01:44:46.418Z,10.07
2024-02-12T01:47:54.554Z,10.07
2024-02-12T01:51:06.062Z,10.07
2024-02-12T01:54:14.560Z,10.09
2024-02-12T01:57:19.098Z,10.09
2024-02-12T02:00:46.824Z,10.10
2024-02-12T02:03:42.813Z,10.13
2024-02-12T02:06:32.628Z,10.13
2024-02-12T02:09:23.187Z,10.13
2024-02-12T02:12:46.981Z,10.13
2024-02-12T02:15:36.226Z,10.12
2024-02-12T02:19:04.046Z,10.10
2024-02-12T02:22:15.850Z,10.13
2024-02-12T02:25:23.588Z,10.19
2024-02-12T02:28:51.632Z,10.26
2024-02-12T02:31:24.454Z,10.33
2024-02-12T02:34:32.648Z,10.39
2024-02-12T02:38:00.538Z,10.45
2024-02-12T02:41:08.279Z,10.50
2024-02-12T02:43:58.450Z,10.52
2024-02-12T02:47:26.055Z,10.53
2024-02-12T02:50:34.140Z,10.53
2024-02-12T02:53:42.365Z,10.55
2024-02-12T02:56:31.858Z,10.58
2024-02-12T02:59:59.429Z,10.63
2024-02-12T03:03:27.130Z,10.66
2024-02-12T03:06:35.740Z,10.69
2024-02-12T03:09:29.701Z,10.71
2024-02-12T03:12:38.193Z,10.73
2024-02-12T03:15:07.427Z,10.73
2024-02-12T03:17:57.972Z,10.72
2024-02-12T03:21:25.659Z,10.71
2024-02-12T03:24:15.348Z,10.73
2024-02-12T03:27:42.886Z,10.74
2024-02-12T03:30:20.827Z,10.75
2024-02-12T03:33:29.549Z,10.78
2024-02-12T03:35:58.346Z,10.79
2024-02-12T03:38:32.544Z,10.80
2024-02-12T03:42:00.014Z,10.85
2024-02-12T03:45:11.393Z,10.87
2024-02-12T03:48:21.855Z,10.91
2024-02-12T03:51:13.426Z,10.94
2024-02-12T03:53:45.185Z,10.83
2024-02-12T03:56:53.399Z,10.74
2024-02-12T04:00:01.567Z,10.61
2024-02-12T04:03:00.427Z,10.46
2024-02-12T04:06:28.012Z,10.30
2024-02-12T04:09:24.881Z,10.17
2024-02-12T04:11:55.166Z,10.11
2024-02-12T04:14:35.711Z,10.04
2024-02-12T04:18:03.399Z,9.92
2024-02-12T04:20:53.851Z,9.86
2024-02-12T04:23:49.362Z,9.81
2024-02-12T04:26:59.667Z,9.79
2024-02-12T04:29:45.973Z,9.80
2024-02-12T04:32:55.600Z,9.82
2024-02-12T04:35:48.730Z,9.82
2024-02-12T04:38:56.923Z,9.80
2024-02-12T04:42:05.390Z,9.78
2024-02-12T04:45:33.275Z,9.77
2024-02-12T04:48:43.284Z,9.77
2024-02-12T04:51:50.845Z,9.78
2024-02-12T04:54:48.259Z,9.80
2024-02-12T04:58:16.195Z,9.80
2024-02-12T05:00:47.850Z,9.83
2024-02-12T05:03:16.508Z,9.85
2024-02-12T05:06:42.527Z,9.92
2024-02-12T05:09:32.223Z,10.06
2024-02-12T05:12:40.350Z,10.19
2024-02-12T05:15:56.126Z,10.29
2024-02-12T05:19:05.842Z,10.35
2024-02-12T05:22:13.323Z,10.41
2024-02-12T05:25:28.934Z,10.46
2024-02-12T05:28:33.534Z,10.53
2024-02-12T05:31:11.278Z,10.56
2024-02-12T05:33:44.868Z,10.60
2024-02-12T05:37:08.097Z,10.62
2024-02-12T05:40:08.527Z,10.61
2024-02-12T05:43:36.243Z,10.60
2024-02-12T05:46:52.545Z,10.64
2024-02-12T05:50:20.335Z,10.67
2024-02-12T05:53:28.432Z,10.67
2024-02-12T05:56:52.500Z,10.71
2024-02-12T06:00:20.367Z,10.73
2024-02-12T06:03:48.315Z,10.77
2024-02-12T06:06:36.612Z,10.80
2024-02-12T06:10:04.216Z,10.85
2024-02-12T06:12:34.092Z,10.90
2024-02-12T06:15:22.202Z,10.92
2024-02-12T06:18:05.400Z,10.95
2024-02-12T06:21:33.060Z,10.99
2024-02-12T06:24:22.167Z,11.00
2024-02-12T06:26:51.559Z,11.02
2024-02-12T06:29:59.361Z,11.09
2024-02-12T06:32:52.613Z,11.12
2024-02-12T06:35:41.495Z,11.15
2024-02-12T06:38:31.145Z,11.14
2024-02-12T06:41:21.934Z,11.17
2024-02-12T06:44:30.573Z,11.21
2024-02-12T06:47:13.780Z,11.23
2024-02-12T06:50:05.842Z,11.26
2024-02-12T06:52:35.016Z,11.31
2024-02-12T06:55:09.224Z,11.35
2024-02-12T06:57:57.014Z,11.37
2024-02-12T07:01:05.520Z,11.39
2024-02-12T07:04:14.180Z,11.46
2024-02-12T07:06:49.808Z,11.48
2024-02-12T07:09:20.353Z,11.50
2024-02-12T07:11:59.008Z,11.55
2024-02-12T07:14:50.340Z,11.59
2024-02-12T07:17:58.057Z,11.67
2024-02-12T07:21:06.893Z,11.73
2024-02-12T07:24:33.446Z,11.81
2024-02-12T07:27:23.427Z,11.86
2024-02-12T07:30:12.077Z,11.91
2024-02-12T07:33:02.346Z,11.97
2024-02-12T07:35:31.376Z,12.00
2024-02-12T07:38:29.064Z,12.03
2024-02-12T07:41:36.912Z,12.05
2024-02-12T07:44:46.250Z,12.08
2024-02-12T07:47:55.178Z,12.09
2024-02-12T07:50:43.322Z,12.09
2024-02-12T07:53:58.859Z,12.10
2024-02-12T07:56:28.716Z,12.13
2024-02-12T07:59:37.182Z,12.06
2024-02-12T08:02:45.503Z,12.12
2024-02-12T08:05:34.414Z,12.17
2024-02-12T08:08:42.176Z,12.26
2024-02-12T08:11:30.987Z,12.29
2024-02-12T08:14:00.003Z,12.34
2024-02-12T08:17:11.253Z,12.38
2024-02-12T08:20:00.020Z,12.42
2024-02-12T08:22:57.129Z,12.42
2024-02-12T08:26:05.158Z,12.33
2024-02-12T08:28:55.356Z,12.33
2024-02-12T08:32:22.949Z,12.19
2024-02-12T08:35:33.527Z,12.26
2024-02-12T08:38:21.487Z,12.30
2024-02-12T08:41:09.735Z,12.29
2024-02-12T08:44:19.717Z,12.39
2024-02-12T08:47:28.039Z,12.48
2024-02-12T08:50:21.714Z,12.57
2024-02-12T08:53:29.756Z,12.58
2024-02-12T08:56:23.080Z,12.61
2024-02-12T08:59:31.524Z,12.62
2024-02-12T09:02:40.524Z,12.61
2024-02-12T09:06:08.141Z,12.57
2024-02-12T09:08:57.794Z,12.57
2024-02-12T09:11:46.007Z,12.63
2024-02-12T09:14:43.506Z,12.57
2024-02-12T09:17:33.269Z,12.49
2024-02-12T09:20:41.691Z,12.48
2024-02-12T09:23:29.838Z,12.50
2024-02-12T09:26:27.936Z,12.48
2024-02-12T09:29:36.947Z,12.45
2024-02-12T09:32:06.632Z,12.42
2024-02-12T09:34:54.359Z,12.37
2024-02-12T09:38:02.041Z,12.37
2024-02-12T09:41:25.783Z,12.32
2024-02-12T09:44:14.598Z,12.26
2024-02-12T09:47:10.721Z,12.23
2024-02-12T09:50:19.334Z,12.32
2024-02-12T09:53:07.568Z,12.35
2024-02-12T09:55:56.732Z,12.41
2024-02-12T09:58:30.236Z,12.38
2024-02-12T10:01:41.550Z,12.44
2024-02-12T10:05:04.297Z,12.60
2024-02-12T10:08:32.194Z,12.73
2024-02-12T10:11:04.779Z,12.70
2024-02-12T10:13:37.091Z,12.70
2024-02-12T10:16:41.147Z,12.79
2024-02-12T10:19:52.800Z,12.87
2024-02-12T10:22:41.351Z,12.93
2024-02-12T10:25:40.018Z,12.86
2024-02-12T10:28:30.774Z,12.89
2024-02-12T10:31:18.667Z,12.93
2024-02-12T10:34:11.116Z,12.90
2024-02-12T10:37:27.498Z,12.82
2024-02-12T10:40:20.868Z,12.69
2024-02-12T10:43:37.613Z,12.62
2024-02-12T10:46:30.713Z,12.53
2024-02-12T10:49:19.758Z,12.53
2024-02-12T10:51:56.456Z,12.51
2024-02-12T10:55:04.472Z,12.40
2024-02-12T10:57:48.678Z,12.30
2024-02-12T11:01:16.754Z,12.22
2024-02-12T11:04:04.385Z,12.15
2024-02-12T11:06:53.072Z,12.07
2024-02-12T11:09:44.462Z,11.98
2024-02-12T11:12:53.216Z,11.90
2024-02-12T11:15:42.359Z,11.81
2024-02-12T11:18:46.653Z,11.80
2024-02-12T11:21:44.013Z,11.71
2024-02-12T11:24:52.795Z,11.62
2024-02-12T11:28:01.378Z,11.59
2024-02-12T11:30:45.711Z,11.55
2024-02-12T11:33:57.410Z,11.46
2024-02-12T11:37:05.164Z,11.34
2024-02-12T11:39:57.466Z,11.27
2024-02-12T11:43:01.709Z,11.20
2024-02-12T11:46:11.266Z,11.16
2024-02-12T11:49:00.409Z,11.14
2024-02-12T11:51:56.153Z,11.13
2024-02-12T11:55:04.069Z,11.14
2024-02-12T11:57:53.596Z,11.13
2024-02-12T12:01:05.902Z,11.14
2024-02-12T12:03:42.305Z,11.17
2024-02-12T12:06:50.481Z,11.24
2024-02-12T12:10:18.138Z,11.32
2024-02-12T12:13:25.892Z,11.31
2024-02-12T12:16:17.529Z,11.36
2024-02-12T12:19:25.348Z,11.30
2024-02-12T12:22:13.593Z,11.30
2024-02-12T12:25:25.278Z,11.40
2024-02-12T12:28:30.842Z,11.47
2024-02-12T12:31:21.031Z,11.55
2024-02-12T12:34:11.209Z,11.55
2024-02-12T12:37:19.632Z,11.52
2024-02-12T12:40:09.844Z,11.48
2024-02-12T12:43:18.509Z,11.28
2024-02-12T12:46:08.667Z,11.08
2024-02-12T12:49:19.500Z,11.01
2024-02-12T12:52:09.289Z,10.88
2024-02-12T12:55:21.327Z,10.78
2024-02-12T12:58:49.201Z,10.65
2024-02-12T13:01:44.900Z,10.64
2024-02-12T13:04:14.265Z,10.61
2024-02-12T13:07:23.350Z,10.63
2024-02-12T13:10:40.681Z,10.64
2024-02-12T13:13:36.970Z,10.53
2024-02-12T13:16:45.450Z,10.44
2024-02-12T13:19:43.354Z,10.38
2024-02-12T13:23:11.218Z,10.35
2024-02-12T13:26:01.156Z,10.32
2024-02-12T13:29:28.976Z,10.32
2024-02-12T13:32:13.987Z,10.38
2024-02-12T13:35:41.854Z,10.39
2024-02-12T13:38:34.376Z,10.39
2024-02-12T13:41:06.998Z,10.40
2024-02-12T13:43:56.131Z,10.40
2024-02-12T13:46:45.205Z,10.44
2024-02-12T13:49:33.377Z,10.46
2024-02-12T13:52:25.917Z,10.50
2024-02-12T13:55:36.408Z,10.55
2024-02-12T13:58:07.430Z,10.54
2024-02-12T14:01:29.912Z,10.56
2024-02-12T14:04:43.522Z,10.58
2024-02-12T14:07:51.557Z,10.60
2024-02-12T14:10:39.640Z,10.62
2024-02-12T14:13:48.150Z,10.61
2024-02-12T14:17:16.265Z,10.41
2024-02-12T14:20:13.605Z,10.25
2024-02-12T14:23:04.355Z,10.08
2024-02-12T14:26:01.951Z,9.98
2024-02-12T14:28:51.658Z,9.88
2024-02-12T14:32:34.819Z,9.77
2024-02-12T14:34:40.025Z,9.67
2024-02-12T14:37:29.914Z,9.63
2024-02-12T14:40:38.616Z,9.61
2024-02-12T14:44:01.748Z,9.56
2024-02-12T14:47:09.762Z,9.49
2024-02-12T14:50:17.539Z,9.48
2024-02-12T14:53:07.921Z,9.56
2024-02-12T14:55:55.861Z,9.62
2024-02-12T14:59:23.752Z,9.74
2024-02-12T15:02:15.763Z,9.84
2024-02-12T15:05:04.629Z,9.92
2024-02-12T15:08:13.624Z,9.98
2024-02-12T15:11:06.452Z,9.93
2024-02-12T15:14:34.284Z,9.91
2024-02-12T15:17:42.724Z,9.88
2024-02-12T15:21:10.338Z,9.81
2024-02-12T15:24:05.893Z,9.80
2024-02-12T15:26:55.186Z,9.73
2024-02-12T15:29:44.438Z,9.73
2024-02-12T15:33:00.399Z,9.77
2024-02-12T15:36:07.797Z,9.78
2024-02-12T15:38:58.332Z,9.78
2024-02-12T15:41:29.608Z,9.79
2024-02-12T15:44:33.051Z,9.76
2024-02-12T15:47:25.388Z,9.74
2024-02-12T15:50:33.216Z,9.75
2024-02-12T15:54:00.849Z,9.79
2024-02-12T15:57:08.480Z,9.82
2024-02-12T16:00:18.382Z,9.82
2024-02-12T16:03:34.395Z,9.77
2024-02-12T16:06:05.545Z,9.71
2024-02-12T16:08:53.446Z,9.64
2024-02-12T16:11:43.525Z,9.61
2024-02-12T16:14:33.521Z,9.53
2024-02-12T16:17:57.419Z,9.42
2024-02-12T16:21:08.748Z,9.38
2024-02-12T16:24:20.123Z,9.33
2024-02-12T16:26:49.096Z,9.32
2024-02-12T16:30:16.640Z,9.30
2024-02-12T16:33:05.158Z,9.30
2024-02-12T16:36:32.931Z,9.31
2024-02-12T16:39:49.060Z,9.32
2024-02-12T16:42:38.810Z,9.25
2024-02-12T16:45:47.271Z,9.18
2024-02-12T16:49:15.825Z,9.11
2024-02-12T16:52:43.603Z,9.06
2024-02-12T16:55:51.447Z,9.03
2024-02-12T16:58:59.175Z,9.04
2024-02-12T17:02:10.613Z,9.01
2024-02-12T17:05:01.103Z,8.97
2024-02-12T17:08:12.262Z,8.96
2024-02-12T17:11:02.450Z,8.93
2024-02-12T17:14:10.339Z,8.91
2024-02-12T17:17:22.339Z,8.86
2024-02-12T17:20:14.860Z,8.84
2024-02-12T17:23:42.734Z,8.83
2024-02-12T17:26:51.651Z,8.81
2024-02-12T17:29:40.225Z,8.79
2024-02-12T17:32:29.704Z,8.75
2024-02-12T17:35:19.581Z,8.71
2024-02-12T17:38:43.895Z,8.67
2024-02-12T17:41:51.764Z,8.63
2024-02-12T17:44:43.388Z,8.61
2024-02-12T17:47:31.887Z,8.60
2024-02-12T17:50:24.070Z,8.57
2024-02-12T17:53:33.045Z,8.57
2024-02-12T17:56:51.163Z,8.52
2024-02-12T17:59:58.999Z,8.49
2024-02-12T18:02:55.111Z,8.46
2024-02-12T18:05:45.565Z,8.46
2024-02-12T18:09:13.861Z,8.42
2024-02-12T18:12:31.941Z,8.38
2024-02-12T18:15:39.869Z,8.36
2024-02-12T18:19:03.569Z,8.32
2024-02-12T18:21:52.253Z,8.29
2024-02-12T18:25:07.902Z,8.25
2024-02-12T18:28:23.753Z,8.21
2024-02-12T18:31:32.333Z,8.21
2024-02-12T18:34:55.398Z,8.22
2024-02-12T18:37:50.338Z,8.23
2024-02-12T18:40:43.458Z,8.20
2024-02-12T18:44:13.054Z,8.15
2024-02-12T18:47:19.640Z,8.14
2024-02-12T18:50:19.453Z,8.11
2024-02-12T18:53:32.746Z,8.08
2024-02-12T18:56:35.188Z,8.04
2024-02-12T18:59:46.508Z,7.99
2024-02-12T19:02:44.841Z,7.99
2024-02-12T19:05:53.815Z,7.95
2024-02-12T19:08:27.434Z,7.94
2024-02-12T19:11:22.867Z,7.94
2024-02-12T19:14:26.903Z,7.94
2024-02-12T19:17:21.965Z,7.94
2024-02-12T19:20:14.191Z,7.93
2024-02-12T19:23:22.110Z,7.90
2024-02-12T19:26:30.263Z,7.88
2024-02-12T19:29:19.608Z,7.88
2024-02-12T19:32:47.725Z,7.90
2024-02-12T19:35:16.724Z,7.88
2024-02-12T19:38:06.020Z,7.86
2024-02-12T19:41:21.536Z,7.85
2024-02-12T19:44:29.776Z,7.87
2024-02-12T19:47:45.519Z,7.84
2024-02-12T19:50:34.606Z,7.82
2024-02-12T19:54:02.517Z,7.85
2024-02-12T19:57:18.543Z,7.83
2024-02-12T20:00:46.622Z,7.85
2024-02-12T20:03:56.181Z,7.87
2024-02-12T20:07:24.004Z,7.88
2024-02-12T20:10:47.534Z,7.89
2024-02-12T20:14:15.510Z,7.90
2024-02-12T20:17:24.145Z,7.95
2024-02-12T20:20:32.936Z,7.95
2024-02-12T20:23:16.565Z,7.94
2024-02-12T20:26:12.641Z,7.97
2024-02-12T20:29:22.780Z,7.94
2024-02-12T20:32:18.652Z,7.90
2024-02-12T20:35:07.193Z,7.90
2024-02-12T20:38:34.862Z,7.88
2024-02-12T20:41:23.117Z,7.88
2024-02-12T20:44:30.850Z,7.86
2024-02-12T20:47:02.961Z,7.88
2024-02-12T20:50:11.112Z,7.83
2024-02-12T20:53:03.803Z,7.82
2024-02-12T20:56:12.471Z,7.79
2024-02-12T20:59:40.494Z,7.77
2024-02-12T21:02:32.366Z,7.76
2024-02-12T21:05:43.996Z,7.73
2024-02-12T21:08:37.939Z,7.70
2024-02-12T21:11:44.824Z,7.72
2024-02-12T21:14:52.899Z,7.75
2024-02-12T21:17:45.583Z,7.76
2024-02-12T21:20:50.125Z,7.73
2024-02-12T21:23:58.000Z,7.69
2024-02-12T21:27:06.181Z,7.73
2024-02-12T21:29:54.067Z,7.73
2024-02-12T21:32:42.986Z,7.71
2024-02-12T21:35:35.319Z,7.74
2024-02-12T21:38:42.935Z,7.74
2024-02-12T21:41:32.091Z,7.76
2024-02-12T21:44:21.572Z,7.78
2024-02-12T21:47:29.698Z,7.79
2024-02-12T21:50:21.193Z,7.79
2024-02-12T21:53:36.479Z,7.77
2024-02-12T21:56:48.473Z,7.78
2024-02-12T22:00:04.348Z,7.80
2024-02-12T22:03:19.421Z,7.82
2024-02-12T22:06:11.820Z,7.85
2024-02-12T22:08:49.864Z,7.84
2024-02-12T22:12:17.681Z,7.85
2024-02-12T22:15:06.253Z,7.86
2024-02-12T22:18:21.812Z,7.85
2024-02-12T22:21:49.303Z,7.84
2024-02-12T22:25:17.166Z,7.85
2024-02-12T22:28:13.158Z,7.80
2024-02-12T22:31:09.964Z,7.79
2024-02-12T22:34:25.809Z,7.84
2024-02-12T22:37:30.985Z,7.83
2024-02-12T22:40:59.013Z,7.82
2024-02-12T22:43:50.521Z,7.85
2024-02-12T22:46:39.021Z,7.86
2024-02-12T22:49:45.052Z,7.83
2024-02-12T22:52:31.556Z,7.87
2024-02-12T22:55:25.203Z,7.88
2024-02-12T22:58:35.193Z,7.83
2024-02-12T23:01:24.415Z,7.85
2024-02-12T23:04:20.506Z,7.86
2024-02-12T23:07:12.952Z,7.84
2024-02-12T23:10:20.776Z,7.85
2024-02-12T23:13:30.472Z,7.83
2024-02-12T23:16:30.430Z,7.84
2024-02-12T23:19:46.803Z,7.81
2024-02-12T23:22:34.923Z,7.78
2024-02-12T23:25:44.706Z,7.77
2024-02-12T23:28:34.545Z,7.77
2024-02-12T23:32:02.332Z,7.80
2024-02-12T23:35:11.023Z,7.77
2024-02-12T23:38:19.730Z,7.77
2024-02-12T23:40:54.161Z,7.76
2024-02-12T23:44:02.457Z,7.76
2024-02-12T23:47:31.696Z,7.71
2024-02-12T23:50:59.636Z,7.70
2024-02-12T23:54:04.328Z,7.65
2024-02-12T23:57:30.216Z,7.59
